createdAt,value
2022-07-26T00:00:58.950Z,12.67
2022-07-26T00:03:28.257Z,12.20
2022-07-26T00:05:56.648Z,14.17
2022-07-26T00:08:24.822Z,12.90
2022-07-26T00:10:53.187Z,12.33
2022-07-26T00:13:21.650Z,12.83
2022-07-26T00:15:50.442Z,12.87
2022-07-26T00:18:18.502Z,12.87
2022-07-26T00:20:49.333Z,16.07
2022-07-26T00:23:19.652Z,29.70
2022-07-26T00:25:47.748Z,20.50
2022-07-26T00:28:15.538Z,16.73
2022-07-26T00:30:43.398Z,12.97
2022-07-26T00:33:11.174Z,12.23
2022-07-26T00:35:39.078Z,12.03
2022-07-26T00:38:08.364Z,12.27
2022-07-26T00:40:36.867Z,12.33
2022-07-26T00:43:04.702Z,11.60
2022-07-26T00:45:32.455Z,12.00
2022-07-26T00:48:00.551Z,12.93
2022-07-26T00:50:28.608Z,11.40
2022-07-26T00:52:57.006Z,12.00
2022-07-26T00:55:26.484Z,11.67
2022-07-26T00:57:54.331Z,11.73
2022-07-26T01:00:26.619Z,11.63
2022-07-26T01:02:56.083Z,12.93
2022-07-26T01:05:24.666Z,12.40
2022-07-26T01:07:55.491Z,11.90
2022-07-26T01:10:23.277Z,12.07
2022-07-26T01:12:52.823Z,12.37
2022-07-26T01:15:20.799Z,12.00
2022-07-26T01:17:49.200Z,11.63
2022-07-26T01:20:17.989Z,12.33
2022-07-26T01:22:47.680Z,12.10
2022-07-26T01:25:20.367Z,12.43
2022-07-26T01:27:48.592Z,12.33
2022-07-26T01:30:16.575Z,11.80
2022-07-26T01:32:44.728Z,13.63
2022-07-26T01:35:12.652Z,12.83
2022-07-26T01:37:40.709Z,11.90
2022-07-26T01:40:11.585Z,13.17
2022-07-26T01:42:41.602Z,12.37
2022-07-26T01:45:10.083Z,11.77
2022-07-26T01:47:39.255Z,12.63
2022-07-26T01:50:08.341Z,12.47
2022-07-26T01:52:36.137Z,12.67
2022-07-26T01:55:04.566Z,12.70
2022-07-26T01:57:33.895Z,12.47
2022-07-26T02:00:01.718Z,12.83
2022-07-26T02:02:29.823Z,12.73
2022-07-26T02:05:00.459Z,12.73
2022-07-26T02:07:28.539Z,12.07
2022-07-26T02:09:57.027Z,13.73
2022-07-26T02:12:26.319Z,12.97
2022-07-26T02:14:56.326Z,13.17
2022-07-26T02:17:24.080Z,13.67
2022-07-26T02:19:52.530Z,14.53
2022-07-26T02:22:21.264Z,13.40
2022-07-26T02:24:49.444Z,14.07
2022-07-26T02:27:18.418Z,13.00
2022-07-26T02:29:46.206Z,12.90
2022-07-26T02:32:15.725Z,12.90
2022-07-26T02:34:43.601Z,13.90
2022-07-26T02:37:12.048Z,13.13
2022-07-26T02:39:40.208Z,12.93
2022-07-26T02:42:08.145Z,13.97
2022-07-26T02:44:37.315Z,13.60
2022-07-26T02:47:05.458Z,13.60
2022-07-26T02:49:35.085Z,13.40
2022-07-26T02:52:02.833Z,13.33
2022-07-26T02:54:30.806Z,13.17
2022-07-26T02:57:01.010Z,13.07
2022-07-26T02:59:28.875Z,13.50
2022-07-26T03:01:56.831Z,12.83
2022-07-26T03:04:25.048Z,14.17
2022-07-26T03:06:54.267Z,12.97
2022-07-26T03:09:22.248Z,13.50
2022-07-26T03:11:50.232Z,13.50
2022-07-26T03:14:18.308Z,13.37
2022-07-26T03:16:47.401Z,13.23
2022-07-26T03:19:15.227Z,12.90
2022-07-26T03:21:43.095Z,14.57
2022-07-26T03:24:12.975Z,15.03
2022-07-26T03:26:40.860Z,13.90
2022-07-26T03:29:08.865Z,13.57
2022-07-26T03:31:37.297Z,13.70
2022-07-26T03:34:05.552Z,12.97
2022-07-26T03:36:34.056Z,13.13
2022-07-26T03:39:01.766Z,13.57
2022-07-26T03:41:32.854Z,13.43
2022-07-26T03:44:01.106Z,13.97
2022-07-26T03:46:29.361Z,13.63
2022-07-26T03:48:57.301Z,13.83
2022-07-26T03:51:27.645Z,15.03
2022-07-26T03:53:55.581Z,15.80
2022-07-26T03:56:29.488Z,15.13
2022-07-26T03:58:59.293Z,15.00
2022-07-26T04:01:27.777Z,15.73
2022-07-26T04:03:55.654Z,15.77
2022-07-26T04:06:23.443Z,13.73
2022-07-26T04:08:51.439Z,14.60
2022-07-26T04:11:20.805Z,13.77
2022-07-26T04:13:49.200Z,13.20
2022-07-26T04:16:18.802Z,12.80
2022-07-26T04:18:46.644Z,16.13
2022-07-26T04:21:15.271Z,18.80
2022-07-26T04:23:49.202Z,15.30
2022-07-26T04:26:19.421Z,14.90
2022-07-26T04:28:48.052Z,16.37
2022-07-26T04:31:16.319Z,14.07
2022-07-26T04:33:45.993Z,12.83
2022-07-26T04:36:14.361Z,13.33
2022-07-26T04:38:42.198Z,16.80
2022-07-26T04:41:10.279Z,14.90
2022-07-26T04:43:38.229Z,14.30
2022-07-26T04:46:06.069Z,14.57
2022-07-26T04:48:34.484Z,13.80
2022-07-26T04:51:04.283Z,13.40
2022-07-26T04:53:32.176Z,14.35
2022-07-26T04:56:00.100Z,14.73
2022-07-26T04:58:27.951Z,16.00
2022-07-26T05:01:09.467Z,16.98
2022-07-26T05:03:39.967Z,15.80
2022-07-26T05:06:10.976Z,16.92
2022-07-26T05:08:39.120Z,18.58
2022-07-26T05:11:07.195Z,18.10
2022-07-26T05:13:35.146Z,19.40
2022-07-26T05:16:03.010Z,19.58
2022-07-26T05:18:45.918Z,16.05
2022-07-26T05:21:18.710Z,16.65
2022-07-26T05:23:46.907Z,15.10
2022-07-26T05:26:14.759Z,14.10
2022-07-26T05:28:42.929Z,15.05
2022-07-26T05:31:11.011Z,13.05
2022-07-26T05:33:38.828Z,13.25
2022-07-26T05:36:07.151Z,12.95
2022-07-26T05:38:36.279Z,12.70
2022-07-26T05:41:04.294Z,13.40
2022-07-26T05:43:41.142Z,12.23
2022-07-26T05:46:11.012Z,13.65
2022-07-26T05:48:39.254Z,13.27
2022-07-26T05:51:07.695Z,13.18
2022-07-26T05:53:38.361Z,14.00
2022-07-26T05:56:06.987Z,13.68
2022-07-26T05:58:35.057Z,13.23
2022-07-26T06:01:02.857Z,13.95
2022-07-26T06:03:32.157Z,12.30
2022-07-26T06:06:00.415Z,12.73
2022-07-26T06:08:28.469Z,13.35
2022-07-26T06:10:57.884Z,13.20
2022-07-26T06:13:25.911Z,12.25
2022-07-26T06:15:54.003Z,11.95
2022-07-26T06:18:22.049Z,11.48
2022-07-26T06:20:50.384Z,11.20
2022-07-26T06:23:18.237Z,12.60
2022-07-26T06:26:04.316Z,11.98
2022-07-26T06:28:32.820Z,12.68
2022-07-26T06:31:00.600Z,11.55
2022-07-26T06:33:28.619Z,11.07
2022-07-26T06:35:56.431Z,11.63
2022-07-26T06:38:24.294Z,11.57
2022-07-26T06:40:52.449Z,11.50
2022-07-26T06:43:21.989Z,11.85
2022-07-26T06:45:50.728Z,11.13
2022-07-26T06:48:18.649Z,11.90
2022-07-26T06:50:46.654Z,11.80
2022-07-26T06:53:14.687Z,11.35
2022-07-26T06:55:42.784Z,11.32
2022-07-26T06:58:10.553Z,12.40
2022-07-26T07:00:40.118Z,40.80
2022-07-26T07:03:08.446Z,12.15
2022-07-26T07:05:36.304Z,12.13
2022-07-26T07:08:05.283Z,13.05
2022-07-26T07:10:35.954Z,13.45
2022-07-26T07:13:04.485Z,16.42
2022-07-26T07:15:32.286Z,11.90
2022-07-26T07:18:01.745Z,12.38
2022-07-26T07:20:29.789Z,12.43
2022-07-26T07:22:58.194Z,12.15
2022-07-26T07:25:30.535Z,13.00
2022-07-26T07:27:59.543Z,11.80
2022-07-26T07:30:28.052Z,12.38
2022-07-26T07:32:56.729Z,13.00
2022-07-26T07:35:31.616Z,12.52
2022-07-26T07:38:00.173Z,13.05
2022-07-26T07:40:28.375Z,14.20
2022-07-26T07:42:58.131Z,12.85
2022-07-26T07:45:25.818Z,12.90
2022-07-26T07:47:53.913Z,14.00
2022-07-26T07:50:22.741Z,13.60
2022-07-26T07:52:59.140Z,12.68
2022-07-26T07:55:46.455Z,12.88
2022-07-26T07:58:17.411Z,13.05
2022-07-26T08:00:47.227Z,14.40
2022-07-26T08:03:17.931Z,13.43
2022-07-26T08:05:47.123Z,13.50
2022-07-26T08:08:22.590Z,14.52
2022-07-26T08:10:52.820Z,15.10
2022-07-26T08:13:21.623Z,14.70
2022-07-26T08:15:52.317Z,14.20
2022-07-26T08:18:22.366Z,13.23
2022-07-26T08:20:50.843Z,13.73
2022-07-26T08:23:20.334Z,13.07
2022-07-26T08:25:56.007Z,13.23
2022-07-26T08:28:46.283Z,13.35
2022-07-26T08:31:13.509Z,14.05
2022-07-26T08:33:46.557Z,13.80
2022-07-26T08:36:14.886Z,12.07
2022-07-26T08:38:44.761Z,12.93
2022-07-26T08:41:15.928Z,12.30
2022-07-26T08:43:52.279Z,12.68
2022-07-26T08:46:25.389Z,13.38
2022-07-26T08:48:56.570Z,12.85
2022-07-26T08:51:26.086Z,13.00
2022-07-26T08:54:02.287Z,13.10
2022-07-26T08:56:32.973Z,13.75
2022-07-26T08:59:00.902Z,12.55
2022-07-26T09:01:29.445Z,12.77
2022-07-26T09:03:57.479Z,13.10
2022-07-26T09:06:28.174Z,13.43
2022-07-26T09:09:12.602Z,12.60
2022-07-26T09:11:40.496Z,12.48
2022-07-26T09:14:08.517Z,11.48
2022-07-26T09:16:39.858Z,13.07
2022-07-26T09:19:19.293Z,11.40
2022-07-26T09:21:55.681Z,11.98
2022-07-26T09:24:35.431Z,12.07
2022-07-26T09:27:04.761Z,13.43
2022-07-26T09:29:43.033Z,12.20
2022-07-26T09:32:12.741Z,11.13
2022-07-26T09:34:52.058Z,11.45
2022-07-26T09:37:33.673Z,10.25
2022-07-26T09:40:04.082Z,10.52
2022-07-26T09:42:32.500Z,9.82
2022-07-26T09:45:00.473Z,9.77
2022-07-26T09:47:38.350Z,8.32
2022-07-26T09:50:14.742Z,8.88
2022-07-26T09:52:58.192Z,9.45
2022-07-26T09:55:39.258Z,9.85
2022-07-26T09:58:14.606Z,9.60
2022-07-26T10:00:42.885Z,8.73
2022-07-26T10:03:10.901Z,8.48
2022-07-26T10:05:39.248Z,8.73
2022-07-26T10:08:07.981Z,7.88
2022-07-26T10:10:39.433Z,7.90
2022-07-26T10:13:08.522Z,9.48
2022-07-26T10:15:38.530Z,8.35
2022-07-26T10:18:08.431Z,8.07
2022-07-26T10:20:42.989Z,8.68
2022-07-26T10:23:29.397Z,9.40
2022-07-26T10:26:00.202Z,9.45
2022-07-26T10:28:29.442Z,9.80
2022-07-26T10:31:15.047Z,9.70
2022-07-26T10:33:45.102Z,9.57
2022-07-26T10:36:23.612Z,9.70
2022-07-26T10:39:05.673Z,9.88
2022-07-26T10:41:36.216Z,10.50
2022-07-26T10:44:31.542Z,10.00
2022-07-26T10:47:03.988Z,9.85
2022-07-26T10:49:33.405Z,10.25
2022-07-26T10:52:08.874Z,10.85
2022-07-26T10:54:55.427Z,10.20
2022-07-26T10:57:31.044Z,10.30
2022-07-26T10:59:59.947Z,11.02
2022-07-26T11:02:32.512Z,10.38
2022-07-26T11:05:01.116Z,10.30
2022-07-26T11:07:29.059Z,10.00
2022-07-26T11:09:57.690Z,11.15
2022-07-26T11:12:27.250Z,10.00
2022-07-26T11:14:55.688Z,11.23
2022-07-26T11:17:27.331Z,11.43
2022-07-26T11:19:55.831Z,10.38
2022-07-26T11:22:23.967Z,11.35
2022-07-26T11:24:52.701Z,10.15
2022-07-26T11:27:20.979Z,10.68
2022-07-26T11:29:50.334Z,10.68
2022-07-26T11:32:19.467Z,10.73
2022-07-26T11:34:48.713Z,11.40
2022-07-26T11:37:16.792Z,10.68
2022-07-26T11:39:44.782Z,10.32
2022-07-26T11:42:15.223Z,10.75
2022-07-26T11:44:44.584Z,10.30
2022-07-26T11:47:15.183Z,10.57
2022-07-26T11:49:59.942Z,10.98
2022-07-26T11:52:32.653Z,11.77
2022-07-26T11:55:01.583Z,11.35
2022-07-26T11:57:30.748Z,12.23
2022-07-26T11:59:59.848Z,11.50
2022-07-26T12:02:29.455Z,10.70
2022-07-26T12:05:12.269Z,11.10
2022-07-26T12:07:40.210Z,11.57
2022-07-26T12:10:08.453Z,11.48
2022-07-26T12:12:37.420Z,10.98
2022-07-26T12:15:07.053Z,10.93
2022-07-26T12:17:36.735Z,11.27
2022-07-26T12:20:15.186Z,11.02
2022-07-26T12:22:54.205Z,10.93
2022-07-26T12:25:26.219Z,10.23
2022-07-26T12:27:54.413Z,11.48
2022-07-26T12:30:22.375Z,10.27
2022-07-26T12:32:54.968Z,10.05
2022-07-26T12:35:29.857Z,10.02
2022-07-26T12:37:57.649Z,9.80
2022-07-26T12:40:26.253Z,9.63
2022-07-26T12:43:01.290Z,10.50
2022-07-26T12:45:30.861Z,10.38
2022-07-26T12:48:00.815Z,10.75
2022-07-26T12:50:29.884Z,10.10
2022-07-26T12:53:01.201Z,10.35
2022-07-26T12:55:29.380Z,11.13
2022-07-26T12:57:57.371Z,11.27
2022-07-26T13:00:25.544Z,10.70
2022-07-26T13:02:55.308Z,10.77
2022-07-26T13:05:25.156Z,10.73
2022-07-26T13:07:53.000Z,10.70
2022-07-26T13:10:36.483Z,10.05
2022-07-26T13:13:11.400Z,10.20
2022-07-26T13:15:39.657Z,11.00
2022-07-26T13:18:08.675Z,10.13
2022-07-26T13:20:39.434Z,10.20
2022-07-26T13:23:09.856Z,10.32
2022-07-26T13:25:40.410Z,9.88
2022-07-26T13:28:10.016Z,10.70
2022-07-26T13:30:39.525Z,10.05
2022-07-26T13:33:08.071Z,10.27
2022-07-26T13:35:36.289Z,10.32
2022-07-26T13:38:06.709Z,10.45
2022-07-26T13:40:36.031Z,9.80
2022-07-26T13:43:04.412Z,9.52
2022-07-26T13:45:32.475Z,10.32
2022-07-26T13:48:01.227Z,9.88
2022-07-26T13:50:29.702Z,9.70
2022-07-26T13:52:58.172Z,9.95
2022-07-26T13:55:29.022Z,8.88
2022-07-26T13:57:58.119Z,9.18
2022-07-26T14:00:27.404Z,10.18
2022-07-26T14:02:55.832Z,10.07
2022-07-26T14:05:24.443Z,9.85
2022-07-26T14:07:53.046Z,9.88
2022-07-26T14:10:28.543Z,9.05
2022-07-26T14:12:57.806Z,9.57
2022-07-26T14:15:25.935Z,9.48
2022-07-26T14:17:54.206Z,9.85
2022-07-26T14:20:22.409Z,9.82
2022-07-26T14:22:53.698Z,9.60
2022-07-26T14:25:22.672Z,10.48
2022-07-26T14:27:51.135Z,10.10
2022-07-26T14:30:20.972Z,10.02
2022-07-26T14:32:49.355Z,10.02
2022-07-26T14:35:18.491Z,10.13
2022-07-26T14:37:46.545Z,10.38
2022-07-26T14:40:15.817Z,9.30
2022-07-26T14:42:44.219Z,10.15
2022-07-26T14:45:12.455Z,10.25
2022-07-26T14:47:42.003Z,9.90
2022-07-26T14:50:10.983Z,11.48
2022-07-26T14:52:40.993Z,11.98
2022-07-26T14:55:09.825Z,10.73
2022-07-26T14:57:39.319Z,9.68
2022-07-26T15:00:08.279Z,9.77
2022-07-26T15:02:36.410Z,9.60
2022-07-26T15:05:06.056Z,10.25
2022-07-26T15:07:34.338Z,9.82
2022-07-26T15:10:02.136Z,9.68
2022-07-26T15:12:30.063Z,10.75
2022-07-26T15:14:57.976Z,10.23
2022-07-26T15:17:26.153Z,10.30
2022-07-26T15:19:54.372Z,11.27
2022-07-26T15:22:25.076Z,9.93
2022-07-26T15:24:53.367Z,10.23
2022-07-26T15:27:21.531Z,10.20
2022-07-26T15:29:50.907Z,10.27
2022-07-26T15:32:18.920Z,10.35
2022-07-26T15:34:47.044Z,9.88
2022-07-26T15:37:14.810Z,10.05
2022-07-26T15:39:44.481Z,10.45
2022-07-26T15:42:12.422Z,10.68
2022-07-26T15:44:43.066Z,11.23
2022-07-26T15:47:15.498Z,10.18
2022-07-26T15:49:59.082Z,9.77
2022-07-26T15:52:27.143Z,10.18
2022-07-26T15:54:57.013Z,10.02
2022-07-26T15:57:25.097Z,9.75
2022-07-26T15:59:53.399Z,9.95
2022-07-26T16:02:21.223Z,10.18
2022-07-26T16:04:49.557Z,8.75
2022-07-26T16:07:17.913Z,9.20
2022-07-26T16:09:48.125Z,9.52
2022-07-26T16:12:17.831Z,10.07
2022-07-26T16:14:46.723Z,10.18
2022-07-26T16:17:14.626Z,8.85
2022-07-26T16:19:43.559Z,8.75
2022-07-26T16:22:11.619Z,11.25
2022-07-26T16:24:39.809Z,9.38
2022-07-26T16:27:09.138Z,9.98
2022-07-26T16:29:38.584Z,9.35
2022-07-26T16:32:08.850Z,9.48
2022-07-26T16:34:38.300Z,9.80
2022-07-26T16:37:06.140Z,9.40
2022-07-26T16:39:33.878Z,9.55
2022-07-26T16:42:07.083Z,9.65
2022-07-26T16:44:39.991Z,9.63
2022-07-26T16:47:10.097Z,8.52
2022-07-26T16:49:38.121Z,9.40
2022-07-26T16:52:07.266Z,9.90
2022-07-26T16:54:37.458Z,8.82
2022-07-26T16:57:05.753Z,8.77
2022-07-26T16:59:33.938Z,9.45
2022-07-26T17:02:03.350Z,9.23
2022-07-26T17:04:31.573Z,8.82
2022-07-26T17:07:23.354Z,10.05
2022-07-26T17:09:47.163Z,10.68
2022-07-26T17:12:14.982Z,10.40
2022-07-26T17:14:42.907Z,9.75
2022-07-26T17:17:12.180Z,10.10
2022-07-26T17:19:43.353Z,11.00
2022-07-26T17:22:11.685Z,10.73
2022-07-26T17:24:40.011Z,10.40
2022-07-26T17:27:08.478Z,10.60
2022-07-26T17:29:36.302Z,9.80
2022-07-26T17:32:04.723Z,11.15
2022-07-26T17:34:33.947Z,11.20
2022-07-26T17:37:03.063Z,10.80
2022-07-26T17:39:52.718Z,10.40
2022-07-26T17:42:22.668Z,10.18
2022-07-26T17:44:51.415Z,10.70
2022-07-26T17:47:28.779Z,10.65
2022-07-26T17:50:26.220Z,11.20
2022-07-26T17:52:51.186Z,11.23
2022-07-26T17:55:19.767Z,11.57
2022-07-26T17:57:48.343Z,11.30
2022-07-26T18:00:19.405Z,11.18
2022-07-26T18:02:47.555Z,11.40
2022-07-26T18:05:20.626Z,11.68
2022-07-26T18:07:48.948Z,11.43
2022-07-26T18:10:16.909Z,10.63
2022-07-26T18:12:45.043Z,11.40
2022-07-26T18:15:12.941Z,11.50
2022-07-26T18:17:41.842Z,11.40
2022-07-26T18:20:10.248Z,11.55
2022-07-26T18:22:40.070Z,11.57
2022-07-26T18:25:09.394Z,11.27
2022-07-26T18:27:37.372Z,12.02
2022-07-26T18:30:06.787Z,11.80
2022-07-26T18:32:35.141Z,11.35
2022-07-26T18:35:02.956Z,11.95
2022-07-26T18:37:31.065Z,11.02
2022-07-26T18:40:02.847Z,12.38
2022-07-26T18:42:32.851Z,11.95
2022-07-26T18:45:01.096Z,11.23
2022-07-26T18:47:29.646Z,11.82
2022-07-26T18:49:57.598Z,11.35
2022-07-26T18:52:28.393Z,10.73
2022-07-26T18:55:01.453Z,11.05
2022-07-26T18:57:29.321Z,11.27
2022-07-26T18:59:57.184Z,12.05
2022-07-26T19:02:25.103Z,11.38
2022-07-26T19:04:53.112Z,12.10
2022-07-26T19:07:21.418Z,11.63
2022-07-26T19:09:49.431Z,12.43
2022-07-26T19:12:18.966Z,11.82
2022-07-26T19:14:46.951Z,12.20
2022-07-26T19:17:15.067Z,11.88
2022-07-26T19:19:43.191Z,11.18
2022-07-26T19:22:11.809Z,10.82
2022-07-26T19:24:40.362Z,11.30
2022-07-26T19:27:10.106Z,11.48
2022-07-26T19:29:40.228Z,11.45
2022-07-26T19:32:08.496Z,11.15
2022-07-26T19:34:36.956Z,11.35
2022-07-26T19:37:05.167Z,10.38
2022-07-26T19:39:34.423Z,11.05
2022-07-26T19:42:06.783Z,10.93
2022-07-26T19:44:35.198Z,10.65
2022-07-26T19:47:05.208Z,10.88
2022-07-26T19:49:33.488Z,11.40
2022-07-26T19:52:01.499Z,11.73
2022-07-26T19:54:29.843Z,10.93
2022-07-26T19:56:59.236Z,11.35
2022-07-26T19:59:27.713Z,11.65
2022-07-26T20:01:58.491Z,11.65
2022-07-26T20:04:28.144Z,10.77
2022-07-26T20:06:56.568Z,10.68
2022-07-26T20:09:24.365Z,10.80
2022-07-26T20:11:52.233Z,10.50
2022-07-26T20:14:21.842Z,11.05
2022-07-26T20:16:54.295Z,10.77
2022-07-26T20:19:28.209Z,10.43
2022-07-26T20:21:59.409Z,10.07
2022-07-26T20:24:28.484Z,10.55
2022-07-26T20:26:56.518Z,10.27
2022-07-26T20:29:27.589Z,10.98
2022-07-26T20:31:57.746Z,10.80
2022-07-26T20:34:25.590Z,10.98
2022-07-26T20:36:54.358Z,9.98
2022-07-26T20:39:26.537Z,10.93
2022-07-26T20:41:54.679Z,10.98
2022-07-26T20:44:27.627Z,9.90
2022-07-26T20:46:56.167Z,10.52
2022-07-26T20:49:25.708Z,10.60
2022-07-26T20:51:53.598Z,10.60
2022-07-26T20:54:22.031Z,10.43
2022-07-26T20:56:53.730Z,11.13
2022-07-26T20:59:21.806Z,10.98
2022-07-26T21:01:50.137Z,11.40
2022-07-26T21:04:21.278Z,11.02
2022-07-26T21:06:49.316Z,10.77
2022-07-26T21:09:18.620Z,10.50
2022-07-26T21:11:46.940Z,11.02
2022-07-26T21:14:16.800Z,10.60
2022-07-26T21:16:45.701Z,10.60
2022-07-26T21:19:19.774Z,10.80
2022-07-26T21:21:48.685Z,10.20
2022-07-26T21:24:16.857Z,10.65
2022-07-26T21:26:46.039Z,11.40
2022-07-26T21:29:16.169Z,10.85
2022-07-26T21:31:45.845Z,10.50
2022-07-26T21:34:13.926Z,11.13
2022-07-26T21:36:41.958Z,10.88
2022-07-26T21:39:10.207Z,11.07
2022-07-26T21:41:38.157Z,11.23
2022-07-26T21:44:06.592Z,11.73
2022-07-26T21:46:36.738Z,11.40
2022-07-26T21:49:06.095Z,12.05
2022-07-26T21:51:34.275Z,11.07
2022-07-26T21:54:02.114Z,10.25
2022-07-26T21:56:30.331Z,10.95
2022-07-26T21:59:00.080Z,10.68
2022-07-26T22:01:29.075Z,10.55
2022-07-26T22:03:57.117Z,10.88
2022-07-26T22:06:27.930Z,11.00
2022-07-26T22:08:56.998Z,10.40
2022-07-26T22:11:24.801Z,10.43
2022-07-26T22:13:52.994Z,11.43
2022-07-26T22:16:20.999Z,11.43
2022-07-26T22:18:49.420Z,10.80
2022-07-26T22:21:17.371Z,12.15
2022-07-26T22:23:47.001Z,10.77
2022-07-26T22:26:15.508Z,11.77
2022-07-26T22:28:43.744Z,11.55
2022-07-26T22:31:11.789Z,10.38
2022-07-26T22:33:39.979Z,10.85
2022-07-26T22:36:09.744Z,10.48
2022-07-26T22:38:37.819Z,10.93
2022-07-26T22:41:07.476Z,11.13
2022-07-26T22:43:35.422Z,11.60
2022-07-26T22:46:03.680Z,10.45
2022-07-26T22:48:34.834Z,10.55
2022-07-26T22:51:05.862Z,10.73
2022-07-26T22:53:33.737Z,10.63
2022-07-26T22:56:01.725Z,10.85
2022-07-26T22:58:31.358Z,11.35
2022-07-26T23:00:59.363Z,11.75
2022-07-26T23:03:28.016Z,10.25
2022-07-26T23:05:58.007Z,11.30
2022-07-26T23:11:17.585Z,10.93
2022-07-26T23:13:47.898Z,10.60
2022-07-26T23:16:15.682Z,11.25
2022-07-26T23:18:43.538Z,11.55
2022-07-26T23:21:12.828Z,11.45
2022-07-26T23:23:40.619Z,11.95
2022-07-26T23:26:09.897Z,11.18
2022-07-26T23:28:38.658Z,10.98
2022-07-26T23:31:12.010Z,10.80
2022-07-26T23:33:53.076Z,10.63
2022-07-26T23:36:23.229Z,13.02
2022-07-26T23:38:51.402Z,12.27
2022-07-26T23:41:19.523Z,11.85
2022-07-26T23:43:47.628Z,12.45
2022-07-26T23:46:17.055Z,11.97
2022-07-26T23:48:44.986Z,11.70
2022-07-26T23:51:13.028Z,12.40
2022-07-26T23:53:41.112Z,10.83
2022-07-26T23:56:09.008Z,12.53
2022-07-26T23:58:41.683Z,13.00
